Colon, North Carolina
Current Conditions -  °F | °C
As of 5:35 PM on Monday 24 Nov 2014 (Local Time) from KTTA Reporting Station
Clear Clear  
Wind Chill: 67°   Ceiling: Unl
Heat Index: 67°   Visibility: 10mi
Dew Point: 65°   Wind: 9mph
Humidity: 94%   Direction: 180°S
Pressure: 29.81"   Gusts: NA
Location:  35.493°N, 79.1765°W
Report Text: KTTA 242235Z AUTO 18008KT 10SM CLR 20/19 A2981 RMK AO2 T01960186
Loading
Personal Weather Stations






























Interactive Weather Map New forecast layout! Learn more

10-Day Weather Forecast

Advertisements
Track Severe Weather on mobile